Elvira, Iowa
Current Conditions -  °F | °C
As of 12:15 PM on Tuesday 21 Oct 2014 (Local Time) from KCWI Reporting Station
Clear Clear  
Wind Chill: 54°   Ceiling: Unl
Heat Index: 54°   Visibility: 10mi
Dew Point: 39°   Wind: 10mph
Humidity: 58%   Direction: 50°NE
Pressure: 30.23"   Gusts: NA
Location:  41.8802°N, 90.2992°W
Report Text: KCWI 211715Z AUTO 05009KT 10SM CLR 12/04 A3023 RMK AO1
Loading
Personal Weather Stations






























Interactive Weather Map
Tropical Storm Tracking
New forecast layout! Learn more

10-Day Weather Forecast

Advertisements
Track Severe Weather on mobile